sensor_id;sensor_type;location;lat;lon;timestamp;P1;durP1;ratioP1;P2;durP2;ratioP2
29500;SDS011;16450;50.288;10.966;2022-11-11T00:00:49;14.00;;;8.10;;
29500;SDS011;16450;50.288;10.966;2022-11-11T00:03:53;11.17;;;7.37;;
29500;SDS011;16450;50.288;10.966;2022-11-11T00:06:55;8.73;;;6.87;;
29500;SDS011;16450;50.288;10.966;2022-11-11T00:09:55;10.73;;;7.00;;
29500;SDS011;16450;50.288;10.966;2022-11-11T00:13:02;9.50;;;6.77;;
29500;SDS011;16450;50.288;10.966;2022-11-11T00:19:06;10.43;;;7.20;;
29500;SDS011;16450;50.288;10.966;2022-11-11T00:22:28;9.07;;;6.53;;
29500;SDS011;16450;50.288;10.966;2022-11-11T00:25:51;15.43;;;7.53;;
29500;SDS011;16450;50.288;10.966;2022-11-11T00:28:52;9.97;;;6.63;;
29500;SDS011;16450;50.288;10.966;2022-11-11T00:31:53;9.57;;;7.03;;
29500;SDS011;16450;50.288;10.966;2022-11-11T00:35:12;8.67;;;6.03;;
29500;SDS011;16450;50.288;10.966;2022-11-11T00:42:28;11.07;;;6.90;;
29500;SDS011;16450;50.288;10.966;2022-11-11T00:45:28;10.83;;;6.90;;
29500;SDS011;16450;50.288;10.966;2022-11-11T00:48:29;20.17;;;7.43;;
29500;SDS011;16450;50.288;10.966;2022-11-11T00:51:48;12.77;;;7.57;;
29500;SDS011;16450;50.288;10.966;2022-11-11T00:54:49;13.87;;;7.07;;
29500;SDS011;16450;50.288;10.966;2022-11-11T00:57:49;11.53;;;7.17;;
29500;SDS011;16450;50.288;10.966;2022-11-11T01:00:50;11.37;;;7.00;;
29500;SDS011;16450;50.288;10.966;2022-11-11T01:03:52;10.13;;;7.00;;
29500;SDS011;16450;50.288;10.966;2022-11-11T01:06:53;10.37;;;7.00;;
29500;SDS011;16450;50.288;10.966;2022-11-11T01:09:53;11.70;;;6.87;;
29500;SDS011;16450;50.288;10.966;2022-11-11T01:12:54;9.60;;;6.63;;
29500;SDS011;16450;50.288;10.966;2022-11-11T01:16:15;11.17;;;6.63;;
29500;SDS011;16450;50.288;10.966;2022-11-11T01:19:23;10.53;;;6.73;;
29500;SDS011;16450;50.288;10.966;2022-11-11T01:22:23;11.03;;;6.80;;
29500;SDS011;16450;50.288;10.966;2022-11-11T01:25:24;10.20;;;6.63;;
29500;SDS011;16450;50.288;10.966;2022-11-11T01:28:25;11.13;;;7.27;;
29500;SDS011;16450;50.288;10.966;2022-11-11T01:31:25;14.40;;;8.00;;
29500;SDS011;16450;50.288;10.966;2022-11-11T01:34:26;14.77;;;7.63;;
29500;SDS011;16450;50.288;10.966;2022-11-11T01:37:27;19.30;;;8.73;;
29500;SDS011;16450;50.288;10.966;2022-11-11T01:40:28;21.40;;;9.07;;
29500;SDS011;16450;50.288;10.966;2022-11-11T01:43:28;20.73;;;9.63;;
29500;SDS011;16450;50.288;10.966;2022-11-11T01:46:31;32.83;;;10.27;;
29500;SDS011;16450;50.288;10.966;2022-11-11T01:52:53;23.13;;;9.13;;
29500;SDS011;16450;50.288;10.966;2022-11-11T01:55:53;21.40;;;8.87;;
29500;SDS011;16450;50.288;10.966;2022-11-11T01:58:54;13.70;;;8.30;;
29500;SDS011;16450;50.288;10.966;2022-11-11T02:01:59;14.37;;;7.80;;
29500;SDS011;16450;50.288;10.966;2022-11-11T02:05:05;11.50;;;7.53;;
29500;SDS011;16450;50.288;10.966;2022-11-11T02:08:31;11.53;;;7.33;;
29500;SDS011;16450;50.288;10.966;2022-11-11T02:11:35;10.60;;;6.63;;
29500;SDS011;16450;50.288;10.966;2022-11-11T02:14:58;12.20;;;6.83;;
29500;SDS011;16450;50.288;10.966;2022-11-11T02:17:59;13.93;;;6.80;;
29500;SDS011;16450;50.288;10.966;2022-11-11T02:21:00;18.13;;;7.07;;
29500;SDS011;16450;50.288;10.966;2022-11-11T02:24:11;12.73;;;6.70;;
29500;SDS011;16450;50.288;10.966;2022-11-11T02:27:16;13.27;;;6.97;;
29500;SDS011;16450;50.288;10.966;2022-11-11T02:30:18;13.40;;;7.40;;
29500;SDS011;16450;50.288;10.966;2022-11-11T02:33:20;15.47;;;7.10;;
29500;SDS011;16450;50.288;10.966;2022-11-11T02:36:21;12.57;;;7.27;;
29500;SDS011;16450;50.288;10.966;2022-11-11T02:39:22;18.37;;;7.77;;
29500;SDS011;16450;50.288;10.966;2022-11-11T02:42:24;14.93;;;7.83;;
29500;SDS011;16450;50.288;10.966;2022-11-11T02:45:25;16.63;;;7.70;;
29500;SDS011;16450;50.288;10.966;2022-11-11T02:48:26;14.53;;;7.57;;
29500;SDS011;16450;50.288;10.966;2022-11-11T02:51:27;24.67;;;8.47;;
29500;SDS011;16450;50.288;10.966;2022-11-11T02:54:27;14.70;;;8.17;;
29500;SDS011;16450;50.288;10.966;2022-11-11T02:57:28;16.87;;;7.90;;
29500;SDS011;16450;50.288;10.966;2022-11-11T03:00:29;17.17;;;8.33;;
29500;SDS011;16450;50.288;10.966;2022-11-11T03:03:29;14.90;;;7.97;;
29500;SDS011;16450;50.288;10.966;2022-11-11T03:06:30;23.50;;;7.77;;
29500;SDS011;16450;50.288;10.966;2022-11-11T03:09:31;19.50;;;8.53;;
29500;SDS011;16450;50.288;10.966;2022-11-11T03:12:32;22.57;;;8.47;;
29500;SDS011;16450;50.288;10.966;2022-11-11T03:15:32;23.83;;;8.53;;
29500;SDS011;16450;50.288;10.966;2022-11-11T03:18:33;23.70;;;8.60;;
29500;SDS011;16450;50.288;10.966;2022-11-11T03:21:34;22.07;;;8.97;;
29500;SDS011;16450;50.288;10.966;2022-11-11T03:24:34;16.03;;;7.63;;
29500;SDS011;16450;50.288;10.966;2022-11-11T03:27:54;29.70;;;8.10;;
29500;SDS011;16450;50.288;10.966;2022-11-11T03:30:54;22.67;;;8.03;;
29500;SDS011;16450;50.288;10.966;2022-11-11T03:33:55;22.33;;;8.57;;
29500;SDS011;16450;50.288;10.966;2022-11-11T03:37:16;32.23;;;8.77;;
29500;SDS011;16450;50.288;10.966;2022-11-11T03:40:35;21.37;;;9.47;;
29500;SDS011;16450;50.288;10.966;2022-11-11T03:43:36;20.13;;;10.23;;
29500;SDS011;16450;50.288;10.966;2022-11-11T03:46:36;24.23;;;11.30;;
29500;SDS011;16450;50.288;10.966;2022-11-11T03:49:37;41.43;;;11.43;;
29500;SDS011;16450;50.288;10.966;2022-11-11T03:52:41;28.40;;;10.77;;
29500;SDS011;16450;50.288;10.966;2022-11-11T03:55:45;36.93;;;11.00;;
29500;SDS011;16450;50.288;10.966;2022-11-11T03:58:45;52.83;;;11.53;;
29500;SDS011;16450;50.288;10.966;2022-11-11T04:01:46;25.70;;;11.63;;
29500;SDS011;16450;50.288;10.966;2022-11-11T04:05:05;36.80;;;11.70;;
29500;SDS011;16450;50.288;10.966;2022-11-11T04:08:25;58.83;;;12.27;;
29500;SDS011;16450;50.288;10.966;2022-11-11T04:11:44;35.40;;;10.77;;
29500;SDS011;16450;50.288;10.966;2022-11-11T04:14:47;28.60;;;10.30;;
29500;SDS011;16450;50.288;10.966;2022-11-11T04:18:06;54.50;;;10.43;;
29500;SDS011;16450;50.288;10.966;2022-11-11T04:21:07;48.50;;;10.43;;
29500;SDS011;16450;50.288;10.966;2022-11-11T04:24:26;31.13;;;9.27;;
29500;SDS011;16450;50.288;10.966;2022-11-11T04:27:45;21.17;;;9.40;;
29500;SDS011;16450;50.288;10.966;2022-11-11T04:31:06;54.33;;;10.77;;
29500;SDS011;16450;50.288;10.966;2022-11-11T04:34:06;34.17;;;9.60;;
29500;SDS011;16450;50.288;10.966;2022-11-11T04:37:07;53.80;;;9.90;;
29500;SDS011;16450;50.288;10.966;2022-11-11T04:40:08;24.73;;;9.03;;
29500;SDS011;16450;50.288;10.966;2022-11-11T04:43:28;33.47;;;9.50;;
29500;SDS011;16450;50.288;10.966;2022-11-11T04:46:29;36.53;;;10.40;;
29500;SDS011;16450;50.288;10.966;2022-11-11T04:49:30;39.47;;;10.07;;
29500;SDS011;16450;50.288;10.966;2022-11-11T04:52:30;31.17;;;11.03;;
29500;SDS011;16450;50.288;10.966;2022-11-11T04:55:31;59.40;;;11.17;;
29500;SDS011;16450;50.288;10.966;2022-11-11T04:58:50;17.40;;;8.50;;
29500;SDS011;16450;50.288;10.966;2022-11-11T05:02:11;28.87;;;8.50;;
29500;SDS011;16450;50.288;10.966;2022-11-11T05:05:30;17.17;;;7.70;;
29500;SDS011;16450;50.288;10.966;2022-11-11T05:08:53;19.07;;;7.97;;
29500;SDS011;16450;50.288;10.966;2022-11-11T05:11:58;28.90;;;7.97;;
29500;SDS011;16450;50.288;10.966;2022-11-11T05:14:58;15.27;;;8.60;;
29500;SDS011;16450;50.288;10.966;2022-11-11T05:18:17;16.90;;;8.30;;
29500;SDS011;16450;50.288;10.966;2022-11-11T05:21:36;18.13;;;8.80;;
29500;SDS011;16450;50.288;10.966;2022-11-11T05:24:37;16.67;;;8.93;;
29500;SDS011;16450;50.288;10.966;2022-11-11T05:27:56;21.43;;;8.30;;
29500;SDS011;16450;50.288;10.966;2022-11-11T05:30:57;16.63;;;9.00;;
29500;SDS011;16450;50.288;10.966;2022-11-11T05:33:57;22.23;;;9.20;;
29500;SDS011;16450;50.288;10.966;2022-11-11T05:36:58;18.23;;;8.87;;
29500;SDS011;16450;50.288;10.966;2022-11-11T05:39:59;15.47;;;9.07;;
29500;SDS011;16450;50.288;10.966;2022-11-11T05:42:59;20.37;;;8.90;;
29500;SDS011;16450;50.288;10.966;2022-11-11T05:46:00;19.17;;;8.87;;
29500;SDS011;16450;50.288;10.966;2022-11-11T05:49:01;20.83;;;8.50;;
29500;SDS011;16450;50.288;10.966;2022-11-11T05:52:14;18.73;;;9.30;;
29500;SDS011;16450;50.288;10.966;2022-11-11T05:55:16;29.97;;;8.83;;
29500;SDS011;16450;50.288;10.966;2022-11-11T05:58:20;22.23;;;9.20;;
29500;SDS011;16450;50.288;10.966;2022-11-11T06:01:20;15.47;;;8.80;;
29500;SDS011;16450;50.288;10.966;2022-11-11T06:04:21;16.40;;;9.20;;
29500;SDS011;16450;50.288;10.966;2022-11-11T06:07:22;17.67;;;9.57;;
29500;SDS011;16450;50.288;10.966;2022-11-11T06:10:23;17.00;;;8.83;;
29500;SDS011;16450;50.288;10.966;2022-11-11T06:13:29;20.60;;;9.27;;
29500;SDS011;16450;50.288;10.966;2022-11-11T06:16:30;16.00;;;9.07;;
29500;SDS011;16450;50.288;10.966;2022-11-11T06:19:30;17.10;;;9.10;;
29500;SDS011;16450;50.288;10.966;2022-11-11T06:22:32;24.07;;;9.07;;
29500;SDS011;16450;50.288;10.966;2022-11-11T06:25:52;15.67;;;8.87;;
29500;SDS011;16450;50.288;10.966;2022-11-11T06:29:11;22.40;;;9.47;;
29500;SDS011;16450;50.288;10.966;2022-11-11T06:32:12;21.90;;;8.67;;
29500;SDS011;16450;50.288;10.966;2022-11-11T06:35:12;20.80;;;9.70;;
29500;SDS011;16450;50.288;10.966;2022-11-11T06:38:13;18.53;;;9.80;;
29500;SDS011;16450;50.288;10.966;2022-11-11T06:41:14;16.27;;;9.20;;
29500;SDS011;16450;50.288;10.966;2022-11-11T06:44:15;23.00;;;9.27;;
29500;SDS011;16450;50.288;10.966;2022-11-11T06:47:15;18.03;;;8.83;;
29500;SDS011;16450;50.288;10.966;2022-11-11T06:50:16;27.57;;;9.57;;
29500;SDS011;16450;50.288;10.966;2022-11-11T06:53:17;20.77;;;9.20;;
29500;SDS011;16450;50.288;10.966;2022-11-11T06:56:19;26.03;;;9.47;;
29500;SDS011;16450;50.288;10.966;2022-11-11T06:59:20;20.80;;;9.43;;
29500;SDS011;16450;50.288;10.966;2022-11-11T07:02:20;21.93;;;9.17;;
29500;SDS011;16450;50.288;10.966;2022-11-11T07:05:21;24.27;;;10.57;;
29500;SDS011;16450;50.288;10.966;2022-11-11T07:08:21;22.17;;;9.10;;
29500;SDS011;16450;50.288;10.966;2022-11-11T07:11:22;31.10;;;9.97;;
29500;SDS011;16450;50.288;10.966;2022-11-11T07:14:23;22.30;;;9.77;;
29500;SDS011;16450;50.288;10.966;2022-11-11T07:17:23;25.40;;;10.20;;
29500;SDS011;16450;50.288;10.966;2022-11-11T07:20:24;53.73;;;12.60;;
29500;SDS011;16450;50.288;10.966;2022-11-11T07:23:24;27.57;;;11.90;;
29500;SDS011;16450;50.288;10.966;2022-11-11T07:26:25;28.93;;;10.10;;
29500;SDS011;16450;50.288;10.966;2022-11-11T07:29:27;33.57;;;10.57;;
29500;SDS011;16450;50.288;10.966;2022-11-11T07:32:28;22.07;;;9.20;;
29500;SDS011;16450;50.288;10.966;2022-11-11T07:35:28;35.77;;;9.70;;
29500;SDS011;16450;50.288;10.966;2022-11-11T07:38:29;27.27;;;9.67;;
29500;SDS011;16450;50.288;10.966;2022-11-11T07:41:29;46.80;;;10.27;;
29500;SDS011;16450;50.288;10.966;2022-11-11T07:44:30;41.40;;;10.90;;
29500;SDS011;16450;50.288;10.966;2022-11-11T07:47:31;53.03;;;10.20;;
29500;SDS011;16450;50.288;10.966;2022-11-11T07:50:33;43.40;;;10.93;;
29500;SDS011;16450;50.288;10.966;2022-11-11T07:53:34;54.23;;;11.27;;
29500;SDS011;16450;50.288;10.966;2022-11-11T07:56:34;51.20;;;10.50;;
29500;SDS011;16450;50.288;10.966;2022-11-11T07:59:35;81.53;;;11.47;;
29500;SDS011;16450;50.288;10.966;2022-11-11T08:02:36;51.90;;;11.17;;
29500;SDS011;16450;50.288;10.966;2022-11-11T08:05:36;83.53;;;10.23;;
29500;SDS011;16450;50.288;10.966;2022-11-11T08:08:37;76.27;;;12.10;;
29500;SDS011;16450;50.288;10.966;2022-11-11T08:11:37;56.07;;;10.87;;
29500;SDS011;16450;50.288;10.966;2022-11-11T08:14:56;31.67;;;9.50;;
29500;SDS011;16450;50.288;10.966;2022-11-11T08:17:57;41.60;;;9.50;;
29500;SDS011;16450;50.288;10.966;2022-11-11T08:20:57;41.73;;;11.00;;
29500;SDS011;16450;50.288;10.966;2022-11-11T08:23:58;38.57;;;9.43;;
29500;SDS011;16450;50.288;10.966;2022-11-11T08:26:59;52.13;;;9.87;;
29500;SDS011;16450;50.288;10.966;2022-11-11T08:30:00;37.87;;;10.13;;
29500;SDS011;16450;50.288;10.966;2022-11-11T08:33:02;32.73;;;8.37;;
29500;SDS011;16450;50.288;10.966;2022-11-11T08:36:04;54.60;;;10.00;;
29500;SDS011;16450;50.288;10.966;2022-11-11T08:39:06;48.00;;;10.03;;
29500;SDS011;16450;50.288;10.966;2022-11-11T08:42:07;129.53;;;11.87;;
29500;SDS011;16450;50.288;10.966;2022-11-11T08:45:08;101.97;;;12.73;;
29500;SDS011;16450;50.288;10.966;2022-11-11T08:48:08;97.77;;;11.57;;
29500;SDS011;16450;50.288;10.966;2022-11-11T08:51:09;74.80;;;10.80;;
29500;SDS011;16450;50.288;10.966;2022-11-11T08:54:10;84.97;;;10.97;;
29500;SDS011;16450;50.288;10.966;2022-11-11T08:57:11;82.50;;;10.40;;
29500;SDS011;16450;50.288;10.966;2022-11-11T09:00:12;91.50;;;11.03;;
29500;SDS011;16450;50.288;10.966;2022-11-11T09:03:13;100.50;;;13.00;;
29500;SDS011;16450;50.288;10.966;2022-11-11T09:06:14;73.67;;;11.80;;
29500;SDS011;16450;50.288;10.966;2022-11-11T09:09:15;79.50;;;10.50;;
29500;SDS011;16450;50.288;10.966;2022-11-11T09:12:16;148.13;;;12.50;;
29500;SDS011;16450;50.288;10.966;2022-11-11T09:15:17;111.87;;;12.87;;
29500;SDS011;16450;50.288;10.966;2022-11-11T09:18:17;128.87;;;12.23;;
29500;SDS011;16450;50.288;10.966;2022-11-11T09:21:18;129.57;;;13.60;;
29500;SDS011;16450;50.288;10.966;2022-11-11T09:24:18;87.23;;;11.97;;
29500;SDS011;16450;50.288;10.966;2022-11-11T09:27:19;100.57;;;12.90;;
29500;SDS011;16450;50.288;10.966;2022-11-11T09:30:20;58.57;;;12.43;;
29500;SDS011;16450;50.288;10.966;2022-11-11T09:33:20;80.33;;;12.53;;
29500;SDS011;16450;50.288;10.966;2022-11-11T09:36:21;62.67;;;11.20;;
29500;SDS011;16450;50.288;10.966;2022-11-11T09:39:21;60.63;;;11.73;;
29500;SDS011;16450;50.288;10.966;2022-11-11T09:52:19;19.37;;;11.17;;
29500;SDS011;16450;50.288;10.966;2022-11-11T09:55:30;20.33;;;12.03;;
29500;SDS011;16450;50.288;10.966;2022-11-11T09:58:43;22.67;;;13.73;;
29500;SDS011;16450;50.288;10.966;2022-11-11T10:01:57;22.50;;;12.43;;
29500;SDS011;16450;50.288;10.966;2022-11-11T10:11:28;29.97;;;14.43;;
29500;SDS011;16450;50.288;10.966;2022-11-11T10:14:35;19.43;;;12.83;;
29500;SDS011;16450;50.288;10.966;2022-11-11T10:21:07;25.87;;;16.47;;
29500;SDS011;16450;50.288;10.966;2022-11-11T10:24:24;24.63;;;13.93;;
29500;SDS011;16450;50.288;10.966;2022-11-11T10:27:38;22.57;;;13.77;;
29500;SDS011;16450;50.288;10.966;2022-11-11T10:30:41;22.70;;;13.63;;
29500;SDS011;16450;50.288;10.966;2022-11-11T10:36:50;22.10;;;14.33;;
29500;SDS011;16450;50.288;10.966;2022-11-11T10:39:57;25.73;;;13.70;;
29500;SDS011;16450;50.288;10.966;2022-11-11T10:43:04;23.07;;;14.60;;
29500;SDS011;16450;50.288;10.966;2022-11-11T10:46:13;22.50;;;13.73;;
29500;SDS011;16450;50.288;10.966;2022-11-11T10:49:28;20.10;;;13.00;;
29500;SDS011;16450;50.288;10.966;2022-11-11T10:52:35;19.17;;;13.07;;
29500;SDS011;16450;50.288;10.966;2022-11-11T10:55:43;22.40;;;13.80;;
29500;SDS011;16450;50.288;10.966;2022-11-11T10:59:16;24.63;;;13.63;;
29500;SDS011;16450;50.288;10.966;2022-11-11T11:05:26;22.77;;;13.30;;
29500;SDS011;16450;50.288;10.966;2022-11-11T11:08:28;25.33;;;15.07;;
29500;SDS011;16450;50.288;10.966;2022-11-11T11:11:35;21.87;;;14.07;;
29500;SDS011;16450;50.288;10.966;2022-11-11T11:14:44;24.13;;;16.10;;
29500;SDS011;16450;50.288;10.966;2022-11-11T11:17:52;23.10;;;15.70;;
29500;SDS011;16450;50.288;10.966;2022-11-11T11:21:07;21.67;;;14.90;;
29500;SDS011;16450;50.288;10.966;2022-11-11T11:24:17;25.60;;;15.07;;
29500;SDS011;16450;50.288;10.966;2022-11-11T11:27:24;21.23;;;13.97;;
29500;SDS011;16450;50.288;10.966;2022-11-11T11:30:25;20.57;;;13.03;;
29500;SDS011;16450;50.288;10.966;2022-11-11T11:33:26;21.87;;;14.77;;
29500;SDS011;16450;50.288;10.966;2022-11-11T11:36:28;20.67;;;14.03;;
29500;SDS011;16450;50.288;10.966;2022-11-11T11:39:36;19.80;;;14.30;;
29500;SDS011;16450;50.288;10.966;2022-11-11T11:42:38;20.53;;;13.83;;
29500;SDS011;16450;50.288;10.966;2022-11-11T11:45:39;21.90;;;14.27;;
29500;SDS011;16450;50.288;10.966;2022-11-11T11:48:44;23.33;;;14.30;;
29500;SDS011;16450;50.288;10.966;2022-11-11T11:55:21;23.73;;;14.90;;
29500;SDS011;16450;50.288;10.966;2022-11-11T11:59:26;25.37;;;17.30;;
29500;SDS011;16450;50.288;10.966;2022-11-11T12:09:01;30.53;;;16.80;;
29500;SDS011;16450;50.288;10.966;2022-11-11T12:15:41;26.33;;;15.57;;
29500;SDS011;16450;50.288;10.966;2022-11-11T12:19:05;23.27;;;16.07;;
29500;SDS011;16450;50.288;10.966;2022-11-11T12:38:57;27.20;;;17.40;;
29500;SDS011;16450;50.288;10.966;2022-11-11T12:42:10;26.03;;;18.53;;
29500;SDS011;16450;50.288;10.966;2022-11-11T12:45:24;24.00;;;16.13;;
29500;SDS011;16450;50.288;10.966;2022-11-11T12:58:19;27.67;;;16.30;;
29500;SDS011;16450;50.288;10.966;2022-11-11T13:08:23;24.30;;;15.67;;
29500;SDS011;16450;50.288;10.966;2022-11-11T13:11:49;21.60;;;15.33;;
29500;SDS011;16450;50.288;10.966;2022-11-11T13:15:14;24.20;;;15.47;;
29500;SDS011;16450;50.288;10.966;2022-11-11T13:21:54;20.30;;;14.50;;
29500;SDS011;16450;50.288;10.966;2022-11-11T13:25:03;25.23;;;14.57;;
29500;SDS011;16450;50.288;10.966;2022-11-11T13:28:20;22.60;;;14.40;;
29500;SDS011;16450;50.288;10.966;2022-11-11T13:31:41;23.67;;;14.43;;
29500;SDS011;16450;50.288;10.966;2022-11-11T13:34:45;20.30;;;13.20;;
29500;SDS011;16450;50.288;10.966;2022-11-11T13:37:46;21.93;;;14.37;;
29500;SDS011;16450;50.288;10.966;2022-11-11T13:40:48;20.83;;;13.63;;
29500;SDS011;16450;50.288;10.966;2022-11-11T13:43:52;20.90;;;13.83;;
29500;SDS011;16450;50.288;10.966;2022-11-11T13:47:01;19.03;;;13.10;;
29500;SDS011;16450;50.288;10.966;2022-11-11T13:50:20;21.17;;;13.23;;
29500;SDS011;16450;50.288;10.966;2022-11-11T13:53:31;21.00;;;13.40;;
29500;SDS011;16450;50.288;10.966;2022-11-11T13:59:38;20.60;;;13.67;;
29500;SDS011;16450;50.288;10.966;2022-11-11T14:02:42;21.93;;;13.83;;
29500;SDS011;16450;50.288;10.966;2022-11-11T14:05:44;23.30;;;13.93;;
29500;SDS011;16450;50.288;10.966;2022-11-11T14:11:45;20.43;;;13.40;;
29500;SDS011;16450;50.288;10.966;2022-11-11T14:14:54;21.47;;;14.40;;
29500;SDS011;16450;50.288;10.966;2022-11-11T14:17:55;22.37;;;13.93;;
29500;SDS011;16450;50.288;10.966;2022-11-11T14:20:56;21.50;;;14.23;;
29500;SDS011;16450;50.288;10.966;2022-11-11T14:23:57;25.47;;;14.67;;
29500;SDS011;16450;50.288;10.966;2022-11-11T14:26:59;27.17;;;17.03;;
29500;SDS011;16450;50.288;10.966;2022-11-11T14:30:00;23.07;;;15.73;;
29500;SDS011;16450;50.288;10.966;2022-11-11T14:33:48;24.63;;;15.97;;
29500;SDS011;16450;50.288;10.966;2022-11-11T14:36:31;28.63;;;16.23;;
29500;SDS011;16450;50.288;10.966;2022-11-11T14:39:43;25.37;;;16.07;;
29500;SDS011;16450;50.288;10.966;2022-11-11T14:42:54;24.10;;;15.20;;
29500;SDS011;16450;50.288;10.966;2022-11-11T14:45:59;25.67;;;15.60;;
29500;SDS011;16450;50.288;10.966;2022-11-11T14:49:04;22.20;;;15.00;;
29500;SDS011;16450;50.288;10.966;2022-11-11T14:52:49;22.87;;;15.50;;
29500;SDS011;16450;50.288;10.966;2022-11-11T14:55:40;24.57;;;15.57;;
29500;SDS011;16450;50.288;10.966;2022-11-11T14:58:42;24.27;;;16.33;;
29500;SDS011;16450;50.288;10.966;2022-11-11T15:01:43;22.73;;;14.93;;
29500;SDS011;16450;50.288;10.966;2022-11-11T15:04:45;24.33;;;15.00;;
29500;SDS011;16450;50.288;10.966;2022-11-11T15:07:52;24.87;;;16.03;;
29500;SDS011;16450;50.288;10.966;2022-11-11T15:11:09;24.70;;;14.70;;
29500;SDS011;16450;50.288;10.966;2022-11-11T15:14:21;26.97;;;15.43;;
29500;SDS011;16450;50.288;10.966;2022-11-11T15:21:12;30.07;;;18.87;;
29500;SDS011;16450;50.288;10.966;2022-11-11T15:27:52;30.77;;;19.37;;
29500;SDS011;16450;50.288;10.966;2022-11-11T15:37:29;47.27;;;28.53;;
29500;SDS011;16450;50.288;10.966;2022-11-11T15:40:31;58.83;;;35.83;;
29500;SDS011;16450;50.288;10.966;2022-11-11T15:43:43;36.00;;;22.40;;
29500;SDS011;16450;50.288;10.966;2022-11-11T15:46:44;32.27;;;21.77;;
29500;SDS011;16450;50.288;10.966;2022-11-11T15:49:46;38.73;;;21.50;;
29500;SDS011;16450;50.288;10.966;2022-11-11T15:52:52;31.00;;;20.67;;
29500;SDS011;16450;50.288;10.966;2022-11-11T15:55:55;34.43;;;21.43;;
29500;SDS011;16450;50.288;10.966;2022-11-11T15:58:56;32.57;;;21.17;;
29500;SDS011;16450;50.288;10.966;2022-11-11T16:01:57;33.97;;;20.53;;
29500;SDS011;16450;50.288;10.966;2022-11-11T16:05:02;35.30;;;20.70;;
29500;SDS011;16450;50.288;10.966;2022-11-11T16:08:17;34.23;;;21.13;;
29500;SDS011;16450;50.288;10.966;2022-11-11T16:11:19;37.30;;;20.27;;
29500;SDS011;16450;50.288;10.966;2022-11-11T16:14:39;30.50;;;19.70;;
29500;SDS011;16450;50.288;10.966;2022-11-11T16:17:45;35.33;;;20.63;;
29500;SDS011;16450;50.288;10.966;2022-11-11T16:20:54;35.70;;;20.00;;
29500;SDS011;16450;50.288;10.966;2022-11-11T16:24:06;32.20;;;19.57;;
29500;SDS011;16450;50.288;10.966;2022-11-11T16:27:26;33.53;;;20.53;;
29500;SDS011;16450;50.288;10.966;2022-11-11T16:30:33;37.40;;;21.37;;
29500;SDS011;16450;50.288;10.966;2022-11-11T16:33:36;33.23;;;19.70;;
29500;SDS011;16450;50.288;10.966;2022-11-11T16:36:36;30.87;;;19.57;;
29500;SDS011;16450;50.288;10.966;2022-11-11T16:43:28;32.57;;;19.07;;
29500;SDS011;16450;50.288;10.966;2022-11-11T16:49:37;31.03;;;18.97;;
29500;SDS011;16450;50.288;10.966;2022-11-11T16:52:57;28.87;;;18.70;;
29500;SDS011;16450;50.288;10.966;2022-11-11T16:56:04;36.73;;;18.33;;
29500;SDS011;16450;50.288;10.966;2022-11-11T16:59:10;34.93;;;20.53;;
29500;SDS011;16450;50.288;10.966;2022-11-11T17:02:19;31.60;;;20.00;;
29500;SDS011;16450;50.288;10.966;2022-11-11T17:05:45;32.63;;;19.10;;
29500;SDS011;16450;50.288;10.966;2022-11-11T17:08:49;30.93;;;18.90;;
29500;SDS011;16450;50.288;10.966;2022-11-11T17:11:51;38.27;;;18.83;;
29500;SDS011;16450;50.288;10.966;2022-11-11T17:14:51;45.23;;;17.97;;
29500;SDS011;16450;50.288;10.966;2022-11-11T17:17:53;87.63;;;18.57;;
29500;SDS011;16450;50.288;10.966;2022-11-11T17:20:54;99.27;;;18.30;;
29500;SDS011;16450;50.288;10.966;2022-11-11T17:23:55;65.20;;;16.53;;
29500;SDS011;16450;50.288;10.966;2022-11-11T17:26:56;37.13;;;14.80;;
29500;SDS011;16450;50.288;10.966;2022-11-11T17:29:57;101.23;;;18.93;;
29500;SDS011;16450;50.288;10.966;2022-11-11T17:32:57;59.10;;;16.83;;
29500;SDS011;16450;50.288;10.966;2022-11-11T17:35:58;41.30;;;14.63;;
29500;SDS011;16450;50.288;10.966;2022-11-11T17:39:00;22.87;;;13.17;;
29500;SDS011;16450;50.288;10.966;2022-11-11T17:42:01;16.83;;;12.73;;
29500;SDS011;16450;50.288;10.966;2022-11-11T17:45:03;21.47;;;13.30;;
29500;SDS011;16450;50.288;10.966;2022-11-11T17:48:04;17.53;;;12.67;;
29500;SDS011;16450;50.288;10.966;2022-11-11T17:51:05;21.10;;;13.97;;
29500;SDS011;16450;50.288;10.966;2022-11-11T17:54:07;23.27;;;12.93;;
29500;SDS011;16450;50.288;10.966;2022-11-11T17:57:08;24.87;;;13.47;;
29500;SDS011;16450;50.288;10.966;2022-11-11T18:00:10;26.10;;;13.30;;
29500;SDS011;16450;50.288;10.966;2022-11-11T18:03:11;28.37;;;14.67;;
29500;SDS011;16450;50.288;10.966;2022-11-11T18:06:11;29.27;;;19.93;;
29500;SDS011;16450;50.288;10.966;2022-11-11T18:09:12;30.53;;;19.53;;
29500;SDS011;16450;50.288;10.966;2022-11-11T18:12:13;21.03;;;15.03;;
29500;SDS011;16450;50.288;10.966;2022-11-11T18:15:13;21.17;;;15.70;;
29500;SDS011;16450;50.288;10.966;2022-11-11T18:18:14;19.60;;;14.67;;
29500;SDS011;16450;50.288;10.966;2022-11-11T18:21:15;18.60;;;14.23;;
29500;SDS011;16450;50.288;10.966;2022-11-11T18:24:15;19.97;;;14.80;;
29500;SDS011;16450;50.288;10.966;2022-11-11T18:27:16;21.67;;;13.73;;
29500;SDS011;16450;50.288;10.966;2022-11-11T18:30:18;17.53;;;12.83;;
29500;SDS011;16450;50.288;10.966;2022-11-11T18:33:20;20.67;;;14.53;;
29500;SDS011;16450;50.288;10.966;2022-11-11T18:36:21;19.27;;;13.97;;
29500;SDS011;16450;50.288;10.966;2022-11-11T18:39:22;19.70;;;15.00;;
29500;SDS011;16450;50.288;10.966;2022-11-11T18:42:22;19.27;;;14.33;;
29500;SDS011;16450;50.288;10.966;2022-11-11T18:45:23;19.03;;;13.87;;
29500;SDS011;16450;50.288;10.966;2022-11-11T18:48:24;17.53;;;12.90;;
29500;SDS011;16450;50.288;10.966;2022-11-11T18:51:25;16.13;;;11.97;;
29500;SDS011;16450;50.288;10.966;2022-11-11T18:54:27;17.77;;;11.40;;
29500;SDS011;16450;50.288;10.966;2022-11-11T18:57:28;18.87;;;13.20;;
29500;SDS011;16450;50.288;10.966;2022-11-11T19:00:29;18.70;;;12.57;;
29500;SDS011;16450;50.288;10.966;2022-11-11T19:03:29;19.97;;;12.90;;
29500;SDS011;16450;50.288;10.966;2022-11-11T19:06:31;19.13;;;13.13;;
29500;SDS011;16450;50.288;10.966;2022-11-11T19:09:34;15.90;;;12.63;;
29500;SDS011;16450;50.288;10.966;2022-11-11T19:12:35;16.77;;;12.53;;
29500;SDS011;16450;50.288;10.966;2022-11-11T19:15:35;16.97;;;12.00;;
29500;SDS011;16450;50.288;10.966;2022-11-11T19:18:36;16.43;;;12.70;;
29500;SDS011;16450;50.288;10.966;2022-11-11T19:21:37;20.03;;;14.20;;
29500;SDS011;16450;50.288;10.966;2022-11-11T19:24:38;21.57;;;15.60;;
29500;SDS011;16450;50.288;10.966;2022-11-11T19:27:39;21.77;;;16.20;;
29500;SDS011;16450;50.288;10.966;2022-11-11T19:30:40;21.10;;;17.00;;
29500;SDS011;16450;50.288;10.966;2022-11-11T19:33:41;21.20;;;14.93;;
29500;SDS011;16450;50.288;10.966;2022-11-11T19:36:42;18.00;;;13.73;;
29500;SDS011;16450;50.288;10.966;2022-11-11T19:39:43;19.63;;;14.23;;
29500;SDS011;16450;50.288;10.966;2022-11-11T19:42:46;18.77;;;13.53;;
29500;SDS011;16450;50.288;10.966;2022-11-11T19:45:48;17.60;;;13.23;;